Time;durP1;ratioP1;P1;durP2;ratioP2;P2;SDS_P1;SDS_P2;PMS_P1;PMS_P2;Temp;Humidity;BMP_temperature;BMP_pressure;BME280_temperature;BME280_humidity;BME280_pressure;Samples;Min_cycle;Max_cycle;Signal;HPM_P1;HPM_P2
2022/01/22 00:01:02;;;;;;;16.47;10.33;;;;;;;-0.19;76.75;100705.63;5003104;28;20232;-66
2022/01/22 00:03:30;;;;;;;14.53;9.13;;;;;;;0.15;75.56;100711.72;5002108;28;21110;-66
2022/01/22 00:05:57;;;;;;;17.63;9.47;;;;;;;-0.33;76.66;100693.19;5003018;28;20239;-65
2022/01/22 00:08:24;;;;;;;17.10;9.77;;;;;;;0.77;74.56;100719.75;5004858;28;20615;-66
2022/01/22 00:10:52;;;;;;;11.73;8.30;;;;;;;0.19;74.70;100708.00;5005646;28;20235;-66
2022/01/22 00:15:48;;;;;;;15.67;8.03;;;;;;;-1.21;79.47;100665.22;5005207;28;20259;-65
2022/01/22 00:18:16;;;;;;;11.77;8.60;;;;;;;0.06;76.50;100718.28;5007153;28;20234;-65
2022/01/22 00:20:43;;;;;;;16.43;8.83;;;;;;;1.01;73.34;100675.50;5005140;28;20235;-64
2022/01/22 00:23:10;;;;;;;13.70;8.33;;;;;;;0.10;76.85;100716.38;5007798;28;20235;-65
2022/01/22 00:25:38;;;;;;;14.87;8.67;;;;;;;0.63;75.96;100714.41;5005101;28;20237;-66
2022/01/22 00:28:04;;;;;;;11.63;8.67;;;;;;;0.28;74.94;100692.69;5005512;28;20747;-65
2022/01/22 00:30:32;;;;;;;12.70;8.83;;;;;;;-0.33;75.64;100671.38;5002376;28;20230;-66
2022/01/22 00:32:59;;;;;;;12.13;8.27;;;;;;;0.67;75.22;100708.03;5008256;28;20241;-66
2022/01/22 00:35:26;;;;;;;14.00;8.57;;;;;;;0.50;74.57;100693.22;5006810;28;20223;-66
2022/01/22 00:37:53;;;;;;;13.63;8.87;;;;;;;0.40;73.78;100685.03;5010048;28;20668;-66
2022/01/22 00:40:21;;;;;;;15.60;9.27;;;;;;;0.50;76.05;100713.38;5007128;28;20231;-67
2022/01/22 00:42:49;;;;;;;11.53;8.60;;;;;;;0.42;76.52;100722.53;5004004;28;20298;-65
2022/01/22 00:45:17;;;;;;;16.23;9.17;;;;;;;1.29;72.53;100666.00;5021648;28;20232;-66
2022/01/22 00:47:45;;;;;;;10.83;9.40;;;;;;;1.68;70.20;100646.22;5006740;28;20239;-66
2022/01/22 00:50:15;;;;;;;17.70;9.17;;;;;;;1.43;70.19;100661.75;5007710;28;20767;-65
2022/01/22 00:52:43;;;;;;;13.63;9.00;;;;;;;1.28;71.50;100674.00;5009266;28;20244;-65
2022/01/22 00:55:11;;;;;;;15.67;9.80;;;;;;;0.77;73.08;100690.84;5007307;28;20235;-65
2022/01/22 00:57:39;;;;;;;20.33;10.07;;;;;;;1.92;69.64;100646.53;5008350;28;20233;-65
2022/01/22 01:00:09;;;;;;;18.47;11.07;;;;;;;1.78;70.29;100656.19;5009581;28;20231;-65
2022/01/22 01:02:36;;;;;;;15.97;9.53;;;;;;;1.28;70.82;100666.09;5009070;28;20237;-66
2022/01/22 01:05:06;;;;;;;15.10;10.77;;;;;;;0.45;71.58;100634.88;5008543;28;20661;-65
2022/01/22 01:07:33;;;;;;;17.97;9.60;;;;;;;0.63;75.37;100712.63;5009203;28;20230;-65
2022/01/22 01:10:00;;;;;;;20.43;10.50;;;;;;;0.90;71.24;100654.25;5009190;28;20254;-65
2022/01/22 01:12:27;;;;;;;14.63;9.80;;;;;;;1.97;68.97;100626.97;5009287;28;20257;-65
2022/01/22 01:15:24;;;;;;;14.30;10.33;;;;;;;2.27;68.27;100622.41;5008717;28;20227;-66
2022/01/22 01:34:11;;;;;;;15.90;10.13;;;;;;;2.13;68.15;100644.34;5008510;28;20233;-65
2022/01/22 01:36:39;;;;;;;22.40;11.37;;;;;;;2.43;67.65;100635.47;5008610;28;20589;-66
2022/01/22 01:39:10;;;;;;;17.50;11.70;;;;;;;2.76;66.90;100638.66;5007918;28;23080;-66
2022/01/22 01:42:17;;;;;;;16.93;11.10;;;;;;;1.89;69.62;100667.75;5008817;28;20227;-65
2022/01/22 01:44:31;;;;;;;20.57;11.07;;;;;;;2.58;66.67;100628.38;5007216;28;20253;-65
2022/01/22 01:47:00;;;;;;;18.43;11.00;;;;;;;1.50;71.90;100706.03;5007925;28;20232;-65
2022/01/22 01:49:28;;;;;;;16.63;11.60;;;;;;;1.85;69.65;100666.22;5008534;28;20264;-66
2022/01/22 01:51:58;;;;;;;19.10;10.47;;;;;;;2.52;67.16;100630.56;5008383;28;20227;-64
2022/01/22 01:54:46;;;;;;;18.30;11.33;;;;;;;2.15;67.90;100646.03;5007988;28;20706;-66
2022/01/22 01:59:53;;;;;;;18.20;11.07;;;;;;;2.65;66.64;100642.00;5005068;28;20234;-65
2022/01/22 02:02:23;;;;;;;18.07;12.10;;;;;;;2.75;66.93;100653.63;5008396;28;20225;-67
2022/01/22 02:04:50;;;;;;;20.60;11.87;;;;;;;2.80;66.33;100641.00;5007462;28;20237;-65
2022/01/22 02:07:17;;;;;;;18.30;11.43;;;;;;;2.31;67.84;100662.59;5008043;28;20239;-66
2022/01/22 02:09:44;;;;;;;17.53;11.97;;;;;;;2.24;67.51;100656.00;5008035;28;20239;-65
2022/01/22 02:12:24;;;;;;;20.83;11.37;;;;;;;2.73;66.15;100642.34;5007329;28;20232;-66
2022/01/22 02:23:42;;;;;;;17.57;10.80;;;;;;;1.44;71.49;100700.28;4984433;28;20239;-66
2022/01/22 02:26:12;;;;;;;19.80;12.03;;;;;;;2.23;69.25;100668.31;5005995;28;20232;-65
2022/01/22 02:28:40;;;;;;;18.67;11.23;;;;;;;1.64;69.49;100663.13;5007484;28;20246;-64
2022/01/22 02:34:01;;;;;;;21.17;12.17;;;;;;;3.00;65.82;100618.63;5006853;28;20634;-65
2022/01/22 02:36:35;;;;;;;17.30;11.37;;;;;;;2.89;66.08;100621.09;5006409;28;20234;-65
2022/01/22 02:39:18;;;;;;;18.67;11.93;;;;;;;3.13;65.78;100629.19;5007013;28;20246;-65
2022/01/22 02:41:49;;;;;;;16.93;11.27;;;;;;;2.61;65.96;100617.66;5008419;28;20228;-65
2022/01/22 02:44:33;;;;;;;17.67;12.70;;;;;;;2.74;66.11;100622.13;5007075;28;20778;-66
2022/01/22 02:47:01;;;;;;;19.40;13.10;;;;;;;3.04;66.29;100637.72;5007204;28;20232;-65
2022/01/22 02:49:28;;;;;;;22.77;12.60;;;;;;;3.27;65.37;100636.19;5005983;28;20231;-65
2022/01/22 02:52:07;;;;;;;22.17;13.07;;;;;;;3.01;66.09;100638.75;5007689;28;20232;-66
2022/01/22 02:54:36;;;;;;;17.33;11.97;;;;;;;2.58;66.62;100635.41;5007249;28;20231;-65
2022/01/22 02:57:03;;;;;;;19.10;13.17;;;;;;;2.77;66.54;100643.00;5006822;28;20243;-65
2022/01/22 02:59:30;;;;;;;19.33;12.87;;;;;;;2.46;67.83;100658.13;5007375;28;20242;-65
2022/01/22 03:01:59;;;;;;;18.53;12.47;;;;;;;2.94;66.88;100660.34;5006092;28;20234;-65
2022/01/22 03:04:26;;;;;;;23.83;12.60;;;;;;;2.24;68.95;100680.56;5007452;28;20701;-65
2022/01/22 03:06:53;;;;;;;17.30;12.63;;;;;;;2.53;67.06;100648.03;5006755;28;20237;-65
2022/01/22 03:09:27;;;;;;;17.53;11.13;;;;;;;2.70;66.25;100637.28;5007240;28;20231;-66
2022/01/22 03:18:19;;;;;;;21.40;12.93;;;;;;;0.40;73.27;100669.28;4991428;28;21759;-65
2022/01/22 03:28:03;;;;;;;16.03;10.03;;;;;;;-0.54;76.69;100674.19;5021025;28;20720;-65
2022/01/22 03:30:30;;;;;;;23.50;12.33;;;;;;;1.55;72.05;100685.56;5018266;28;20628;-66
2022/01/22 03:32:57;;;;;;;22.17;12.40;;;;;;;1.32;70.94;100670.25;5026188;28;21035;-65
2022/01/22 03:35:27;;;;;;;20.13;11.27;;;;;;;0.26;74.41;100692.78;5026695;28;20236;-65
2022/01/22 03:37:57;;;;;;;19.50;11.13;;;;;;;2.42;68.04;100646.09;5019047;28;20906;-66
2022/01/22 03:40:28;;;;;;;17.13;11.80;;;;;;;2.19;69.21;100653.66;5016294;28;20227;-65
2022/01/22 03:42:56;;;;;;;20.27;13.20;;;;;;;1.09;72.93;100722.34;5002882;28;20639;-65
2022/01/22 03:45:24;;;;;;;21.00;12.33;;;;;;;2.02;69.98;100690.69;5012775;28;20230;-65
2022/01/22 03:47:51;;;;;;;28.50;12.30;;;;;;;3.04;65.85;100637.72;5021925;28;20231;-65
2022/01/22 03:50:22;;;;;;;15.43;11.93;;;;;;;2.41;67.46;100640.00;5014711;28;20223;-65
2022/01/22 03:52:49;;;;;;;17.40;11.77;;;;;;;2.73;66.54;100654.66;5021149;28;20232;-66
2022/01/22 03:55:38;;;;;;;18.17;12.13;;;;;;;0.88;73.22;100726.19;5030221;28;20217;-65
2022/01/22 03:58:05;;;;;;;19.73;11.33;;;;;;;-0.23;76.53;100709.31;5023419;28;20238;-64
2022/01/22 04:00:32;;;;;;;18.53;10.83;;;;;;;-0.76;77.35;100676.16;5010800;28;20228;-65
2022/01/22 04:06:11;;;;;;;25.87;12.67;;;;;;;0.67;76.15;100744.81;5010395;28;20231;-65
2022/01/22 04:08:36;;;;;;;23.60;12.07;;;;;;;0.73;74.87;100727.91;5010548;28;20231;-65
2022/01/22 04:11:04;;;;;;;21.07;11.67;;;;;;;0.69;73.68;100706.22;5009872;28;20247;-65
2022/01/22 04:13:34;;;;;;;18.20;11.23;;;;;;;0.36;75.58;100743.00;5010070;28;20624;-65
2022/01/22 04:16:01;;;;;;;22.37;11.77;;;;;;;1.51;72.27;100683.19;5010022;28;20228;-65
2022/01/22 04:27:23;;;;;;;19.47;11.80;;;;;;;2.06;68.17;100643.03;5009659;28;20231;-65
2022/01/22 04:29:40;;;;;;;19.40;11.30;;;;;;;2.39;67.92;100639.22;5005259;28;20618;-66
2022/01/22 04:32:07;;;;;;;18.53;12.20;;;;;;;2.68;66.33;100618.94;5010309;28;20239;-65
2022/01/22 04:34:34;;;;;;;20.40;11.73;;;;;;;2.27;68.29;100648.75;5009459;28;20338;-65
2022/01/22 04:37:02;;;;;;;24.13;13.20;;;;;;;1.65;70.29;100682.38;5010032;28;20236;-65
2022/01/22 04:39:29;;;;;;;19.87;12.50;;;;;;;2.50;67.03;100628.03;5017101;28;20878;-65
2022/01/22 04:41:57;;;;;;;18.40;12.00;;;;;;;1.84;70.46;100690.03;5007106;28;20228;-66
2022/01/22 04:44:28;;;;;;;20.00;11.57;;;;;;;1.38;71.30;100696.19;5007844;28;20230;-65
2022/01/22 04:47:14;;;;;;;21.07;11.67;;;;;;;0.53;71.94;100663.34;5017655;28;20607;-65
2022/01/22 04:55:00;;;;;;;18.70;11.27;;;;;;;-0.32;76.12;100688.81;5008711;28;20239;-65
2022/01/22 04:57:29;;;;;;;18.00;10.83;;;;;;;1.44;72.10;100690.59;5020425;28;20231;-66
2022/01/22 04:59:57;;;;;;;17.67;10.87;;;;;;;-0.24;74.85;100677.91;5009647;28;20611;-65
2022/01/22 05:02:24;;;;;;;19.67;11.40;;;;;;;0.02;75.83;100722.00;5008887;28;20235;-65
2022/01/22 05:04:51;;;;;;;15.40;11.90;;;;;;;0.32;74.28;100704.72;5008944;28;20785;-65
2022/01/22 05:07:18;;;;;;;20.57;11.90;;;;;;;0.58;74.23;100716.44;5009012;28;20231;-65
2022/01/22 05:09:45;;;;;;;19.33;11.40;;;;;;;0.42;75.57;100737.41;5016186;28;20231;-65
2022/01/22 05:12:12;;;;;;;20.37;11.37;;;;;;;0.14;75.89;100719.69;5007109;28;20241;-64
2022/01/22 05:14:38;;;;;;;19.07;11.60;;;;;;;0.24;74.87;100720.88;5008634;28;20857;-65
2022/01/22 05:17:07;;;;;;;23.43;12.17;;;;;;;1.06;73.54;100713.78;5008404;28;20825;-65
2022/01/22 05:25:18;;;;;;;18.03;12.10;;;;;;;2.51;67.11;100616.53;5026935;28;20227;-66
2022/01/22 05:38:28;;;;;;;21.83;12.30;;;;;;;0.77;73.84;100755.66;5028594;28;20233;-65
2022/01/22 05:40:55;;;;;;;27.07;13.50;;;;;;;2.04;70.13;100694.94;5016479;28;20236;-65
2022/01/22 05:43:22;;;;;;;22.60;12.27;;;;;;;0.95;74.93;100773.06;5007351;28;20229;-65
2022/01/22 05:45:49;;;;;;;24.07;12.60;;;;;;;1.36;73.59;100756.75;5016948;28;20616;-65
2022/01/22 05:48:17;;;;;;;20.20;12.87;;;;;;;1.42;69.57;100687.19;5007729;28;20232;-65
2022/01/22 05:50:51;;;;;;;20.60;12.00;;;;;;;0.48;73.69;100726.59;5008473;28;20238;-65
2022/01/22 06:01:10;;;;;;;22.20;12.53;;;;;;;1.29;73.21;100747.50;4997820;28;20455;-66
2022/01/22 06:03:37;;;;;;;17.07;11.60;;;;;;;2.22;69.25;100686.84;5007922;28;20232;-65
2022/01/22 06:06:04;;;;;;;17.10;12.57;;;;;;;1.53;72.22;100737.41;5008247;28;20719;-65
2022/01/22 06:08:34;;;;;;;18.37;12.83;;;;;;;2.85;67.18;100674.97;5007599;28;20232;-66
2022/01/22 06:11:08;;;;;;;25.17;13.17;;;;;;;1.13;74.25;100765.09;5007509;28;20240;-65
2022/01/22 06:13:46;;;;;;;21.40;12.87;;;;;;;2.03;71.41;100716.06;5006492;28;20875;-65
2022/01/22 06:16:16;;;;;;;19.70;12.77;;;;;;;1.65;71.78;100720.06;5015821;28;20241;-65
2022/01/22 06:18:43;;;;;;;17.83;12.23;;;;;;;-0.21;77.00;100752.03;5015799;28;20231;-66
2022/01/22 06:21:11;;;;;;;18.73;13.00;;;;;;;1.61;72.77;100731.69;5026284;28;20253;-65
2022/01/22 06:23:39;;;;;;;23.13;13.10;;;;;;;0.55;74.03;100740.22;5016884;28;20230;-66
2022/01/22 06:26:07;;;;;;;22.93;12.73;;;;;;;1.84;70.61;100704.03;5008138;28;20778;-65
2022/01/22 06:28:36;;;;;;;22.00;14.23;;;;;;;1.77;70.65;100704.47;5007715;28;20270;-65
2022/01/22 06:31:03;;;;;;;21.60;13.27;;;;;;;1.02;72.00;100729.72;5007560;28;20233;-66
2022/01/22 06:33:31;;;;;;;21.87;14.03;;;;;;;1.43;72.54;100770.41;5007165;28;20233;-66
2022/01/22 06:35:57;;;;;;;19.27;12.97;;;;;;;1.50;69.98;100710.41;5007642;28;20718;-65
2022/01/22 06:38:26;;;;;;;22.33;14.30;;;;;;;3.02;67.61;100711.63;5007497;28;20234;-66
2022/01/22 06:43:39;;;;;;;18.87;12.17;;;;;;;1.78;71.38;100743.00;5007366;28;20643;-65
2022/01/22 06:46:06;;;;;;;20.47;13.23;;;;;;;1.52;71.83;100742.75;5007737;28;20709;-65
2022/01/22 06:48:33;;;;;;;20.17;12.80;;;;;;;0.19;76.98;100785.88;5007325;28;20235;-66
2022/01/22 06:51:01;;;;;;;18.30;12.33;;;;;;;2.24;69.87;100724.44;5006870;28;20232;-65
2022/01/22 06:53:28;;;;;;;20.10;12.80;;;;;;;2.67;67.68;100703.34;5007187;28;20228;-65
2022/01/22 06:56:00;;;;;;;24.20;13.83;;;;;;;2.03;69.94;100742.41;5007249;28;20241;-66
2022/01/22 06:58:28;;;;;;;18.37;13.13;;;;;;;1.85;71.42;100768.84;5007740;28;20984;-65
2022/01/22 07:00:55;;;;;;;20.13;13.67;;;;;;;2.65;67.72;100719.25;5006571;28;20831;-65
2022/01/22 07:03:22;;;;;;;22.20;13.27;;;;;;;1.08;74.45;100817.03;5007261;28;20235;-65
2022/01/22 07:05:49;;;;;;;20.03;13.00;;;;;;;-0.25;77.34;100791.63;5007681;28;20228;-65
2022/01/22 07:08:19;;;;;;;20.33;13.03;;;;;;;2.47;69.22;100723.03;5006983;28;20250;-66
2022/01/22 07:10:46;;;;;;;21.93;12.97;;;;;;;2.00;69.72;100737.31;5007499;28;20239;-66
2022/01/22 07:13:13;;;;;;;23.97;13.27;;;;;;;2.74;67.57;100719.59;5006473;28;20643;-66
2022/01/22 07:15:40;;;;;;;21.30;13.80;;;;;;;3.40;64.89;100707.44;5007381;28;20232;-65
2022/01/22 07:18:07;;;;;;;23.17;13.60;;;;;;;3.29;65.57;100697.56;5006871;28;20311;-65
2022/01/22 07:20:39;;;;;;;28.20;13.50;;;;;;;2.74;67.89;100744.16;5011524;28;20914;-65
2022/01/22 07:23:20;;;;;;;21.93;13.23;;;;;;;2.56;68.67;100751.44;5008882;28;20823;-65
2022/01/22 07:25:48;;;;;;;23.93;13.63;;;;;;;3.18;65.61;100718.53;5011230;28;20220;-66
2022/01/22 07:28:16;;;;;;;25.47;13.13;;;;;;;2.06;69.77;100774.63;5010989;28;20247;-66
2022/01/22 07:30:46;;;;;;;20.10;12.10;;;;;;;0.44;74.38;100806.44;5010544;28;20311;-65
2022/01/22 07:33:13;;;;;;;23.20;13.60;;;;;;;2.78;68.44;100768.50;5010780;28;20255;-65
2022/01/22 07:35:40;;;;;;;22.23;13.17;;;;;;;0.83;71.53;100777.19;5010963;28;20231;-65
2022/01/22 07:38:09;;;;;;;18.47;12.80;;;;;;;1.17;71.14;100783.22;5011007;28;20245;-64
2022/01/22 07:40:37;;;;;;;19.63;12.80;;;;;;;1.13;73.95;100841.31;5010853;28;20709;-65
2022/01/22 07:43:05;;;;;;;21.60;14.80;;;;;;;2.42;69.72;100785.66;5009718;28;20608;-66
2022/01/22 07:45:32;;;;;;;21.30;13.87;;;;;;;3.29;66.20;100745.03;5011332;28;20225;-65
2022/01/22 07:47:59;;;;;;;23.23;14.77;;;;;;;2.86;66.84;100732.00;5010326;28;20221;-64
2022/01/22 07:50:26;;;;;;;20.93;13.50;;;;;;;3.31;65.69;100732.59;5011086;28;20229;-66
2022/01/22 07:52:53;;;;;;;24.13;14.07;;;;;;;3.13;65.69;100716.19;5009862;28;20752;-65
2022/01/22 07:55:22;;;;;;;24.53;14.53;;;;;;;2.60;65.96;100712.56;5010563;28;20228;-66
2022/01/22 07:57:50;;;;;;;21.37;12.93;;;;;;;3.40;65.20;100753.13;5010440;28;20234;-65
2022/01/22 08:00:17;;;;;;;21.87;13.43;;;;;;;3.38;64.98;100731.28;5010827;28;20716;-66
2022/01/22 08:02:44;;;;;;;22.30;14.30;;;;;;;3.72;64.18;100744.00;5010236;28;20234;-65
2022/01/22 08:05:11;;;;;;;20.97;13.27;;;;;;;3.63;64.66;100734.94;5010169;28;20795;-66
2022/01/22 08:07:43;;;;;;;24.90;14.20;;;;;;;3.80;63.28;100729.34;5009653;28;20238;-65
2022/01/22 08:10:12;;;;;;;19.93;13.70;;;;;;;3.32;64.98;100723.78;5010466;28;20585;-65
2022/01/22 08:12:42;;;;;;;26.13;14.03;;;;;;;2.70;69.04;100795.38;5011425;28;20612;-64
2022/01/22 08:15:12;;;;;;;20.40;13.37;;;;;;;3.15;66.58;100763.53;5010768;28;21829;-65
2022/01/22 08:17:39;;;;;;;21.63;12.87;;;;;;;3.15;66.54;100753.00;5021990;28;20662;-65
2022/01/22 08:20:07;;;;;;;21.27;12.17;;;;;;;3.00;66.16;100731.09;5028625;28;20231;-65
2022/01/22 08:22:34;;;;;;;19.27;13.00;;;;;;;3.25;65.41;100733.00;5018268;28;20638;-65
2022/01/22 08:25:01;;;;;;;22.80;13.03;;;;;;;2.92;66.25;100738.69;5026469;28;20242;-66
2022/01/22 08:29:58;;;;;;;25.50;13.73;;;;;;;2.59;67.32;100753.84;5018165;28;20231;-65
2022/01/22 08:32:57;;;;;;;22.60;12.37;;;;;;;2.80;67.11;100774.56;5028932;28;20232;-64
2022/01/22 08:38:07;;;;;;;20.13;13.47;;;;;;;3.26;65.29;100750.50;5021057;28;20242;-65
2022/01/22 08:40:35;;;;;;;17.17;12.40;;;;;;;2.91;66.67;100758.06;5023542;28;20271;-65
2022/01/22 08:43:02;;;;;;;22.33;12.63;;;;;;;3.06;66.14;100749.16;5006353;28;20231;-66
2022/01/22 08:45:29;;;;;;;18.30;12.97;;;;;;;3.25;65.85;100769.91;5017643;28;20220;-65
2022/01/22 08:47:55;;;;;;;22.30;13.87;;;;;;;1.33;71.92;100821.78;5026007;28;20722;-65
2022/01/22 08:50:23;;;;;;;17.37;12.77;;;;;;;2.77;68.34;100806.38;5009546;28;20221;-65
2022/01/22 08:52:50;;;;;;;25.90;15.43;;;;;;;2.47;68.12;100778.34;5009032;28;20231;-65
2022/01/22 08:55:17;;;;;;;18.23;11.13;;;;;;;2.79;68.24;100804.47;5009067;28;20236;-65
2022/01/22 08:57:49;;;;;;;34.90;22.27;;;;;;;2.80;69.18;100814.94;5009400;28;20236;-67
2022/01/22 09:00:18;;;;;;;19.33;13.33;;;;;;;2.55;69.73;100820.84;5009422;28;20230;-65
2022/01/22 09:02:47;;;;;;;22.80;15.03;;;;;;;3.22;65.94;100760.41;5009088;28;20244;-65
2022/01/22 09:05:19;;;;;;;23.90;12.27;;;;;;;1.81;69.93;100787.56;5009713;28;20941;-66
2022/01/22 09:07:46;;;;;;;23.37;14.93;;;;;;;2.29;70.72;100840.84;5009066;28;20232;-66
2022/01/22 09:10:13;;;;;;;18.73;11.40;;;;;;;3.25;66.79;100793.63;5009299;28;20232;-65
2022/01/22 09:12:41;;;;;;;20.27;10.83;;;;;;;3.31;65.70;100763.41;5003352;28;20226;-65
2022/01/22 09:15:08;;;;;;;19.50;11.57;;;;;;;3.75;65.66;100791.31;5008752;28;20705;-65
2022/01/22 09:17:35;;;;;;;17.23;10.47;;;;;;;3.35;65.51;100755.22;5008979;28;20232;-65
2022/01/22 09:20:08;;;;;;;19.03;11.20;;;;;;;3.64;65.14;100777.97;5009302;28;20243;-66
2022/01/22 09:22:36;;;;;;;20.57;10.87;;;;;;;2.79;68.25;100810.59;5009136;28;20235;-65
2022/01/22 09:25:03;;;;;;;18.00;10.20;;;;;;;2.10;70.44;100835.84;5007806;28;20233;-65
2022/01/22 09:27:30;;;;;;;14.13;10.93;;;;;;;3.32;66.97;100776.53;5008623;28;20224;-65
2022/01/22 09:29:57;;;;;;;18.33;10.87;;;;;;;2.99;67.41;100793.53;5011925;28;20228;-65
2022/01/22 09:32:24;;;;;;;20.17;11.10;;;;;;;3.14;66.95;100790.88;5018249;28;20775;-65
2022/01/22 09:34:51;;;;;;;14.83;10.63;;;;;;;3.70;65.13;100782.88;5017822;28;20225;-65
2022/01/22 09:37:18;;;;;;;14.50;10.47;;;;;;;2.88;67.05;100788.06;5013981;28;20231;-65
2022/01/22 09:39:46;;;;;;;17.80;11.33;;;;;;;3.32;65.85;100797.63;5013764;28;20771;-65
2022/01/22 09:42:15;;;;;;;20.97;11.23;;;;;;;3.66;65.16;100790.16;5007654;28;20235;-65
2022/01/22 09:44:43;;;;;;;18.00;11.30;;;;;;;3.58;66.38;100814.38;5006824;28;20223;-63
2022/01/22 09:47:11;;;;;;;19.97;12.27;;;;;;;1.80;69.49;100794.59;5007203;28;20239;-68
2022/01/22 09:49:38;;;;;;;15.87;10.13;;;;;;;3.21;67.19;100815.88;5008558;28;20616;-64
2022/01/22 09:52:05;;;;;;;14.93;9.50;;;;;;;2.94;68.24;100815.84;5005513;28;20887;-65
2022/01/22 09:54:32;;;;;;;16.77;10.20;;;;;;;2.60;70.03;100846.94;5007657;28;20228;-65
2022/01/22 09:57:03;;;;;;;16.73;10.77;;;;;;;2.79;68.77;100836.09;5006352;28;20238;-64
2022/01/22 09:59:31;;;;;;;15.17;9.77;;;;;;;2.47;69.97;100847.66;5006851;28;20222;-65
2022/01/22 10:02:11;;;;;;;17.80;10.97;;;;;;;3.34;66.85;100811.56;5005464;28;20243;-65
2022/01/22 10:04:41;;;;;;;19.27;10.40;;;;;;;2.57;67.98;100799.69;5004320;28;20600;-65
2022/01/22 10:07:21;;;;;;;14.93;10.10;;;;;;;3.71;65.79;100814.44;5007174;28;20686;-65
2022/01/22 10:10:03;;;;;;;14.40;9.83;;;;;;;3.73;65.43;100799.34;5007433;28;20225;-64
2022/01/22 10:12:31;;;;;;;16.80;11.47;;;;;;;3.22;67.16;100822.88;5008214;28;20225;-64
2022/01/22 10:15:08;;;;;;;18.60;10.63;;;;;;;3.52;66.02;100814.81;5004887;28;20225;-65
2022/01/22 10:17:38;;;;;;;17.53;10.87;;;;;;;3.56;65.76;100799.63;5006045;28;20224;-66
2022/01/22 10:20:30;;;;;;;19.00;11.10;;;;;;;3.67;65.93;100818.19;5007807;28;20225;-64
2022/01/22 10:23:20;;;;;;;19.73;10.53;;;;;;;3.86;64.61;100806.44;5005088;28;20221;-64
2022/01/22 10:25:57;;;;;;;22.70;13.17;;;;;;;3.96;64.16;100792.53;5007196;28;20228;-64
2022/01/22 10:28:26;;;;;;;12.10;9.17;;;;;;;3.10;67.50;100836.81;5007596;28;20734;-65
2022/01/22 10:31:03;;;;;;;21.33;12.43;;;;;;;3.45;66.08;100829.31;5005072;28;20609;-65
2022/01/22 10:33:31;;;;;;;19.07;12.13;;;;;;;3.26;66.40;100808.53;5006514;28;20218;-65
2022/01/22 10:36:12;;;;;;;15.97;11.67;;;;;;;3.96;64.71;100810.13;5007543;28;20792;-64
2022/01/22 10:38:42;;;;;;;14.60;10.70;;;;;;;2.74;68.09;100828.47;5005103;28;20243;-65
2022/01/22 10:41:10;;;;;;;18.83;11.47;;;;;;;3.67;65.71;100825.28;5007974;28;20227;-66
2022/01/22 10:43:42;;;;;;;21.73;11.90;;;;;;;2.65;68.10;100824.63;5007305;28;20235;-65
2022/01/22 10:49:00;;;;;;;20.33;12.13;;;;;;;3.89;65.42;100822.06;5007023;28;20237;-65
2022/01/22 10:51:42;;;;;;;17.87;12.23;;;;;;;3.71;65.51;100813.56;5006877;28;20717;-65
2022/01/22 10:54:13;;;;;;;14.30;10.73;;;;;;;3.93;64.67;100799.81;5006338;28;20233;-65
2022/01/22 10:56:41;;;;;;;16.43;12.40;;;;;;;3.90;65.33;100792.94;5006345;28;20248;-65
2022/01/22 10:59:11;;;;;;;21.90;12.70;;;;;;;3.57;65.81;100788.09;5006990;28;20609;-64
2022/01/22 11:04:08;;;;;;;20.23;13.37;;;;;;;2.87;68.29;100792.50;5071084;27;20371;-63
2022/01/22 11:06:37;;;;;;;21.60;13.17;;;;;;;2.66;68.82;100775.41;5074201;28;20222;-64
2022/01/22 11:09:06;;;;;;;22.60;14.73;;;;;;;3.19;67.16;100768.53;5084062;28;20253;-64
2022/01/22 11:11:39;;;;;;;23.60;14.03;;;;;;;3.52;66.28;100753.25;5088922;28;20229;-65
2022/01/22 11:14:08;;;;;;;23.90;15.30;;;;;;;3.19;66.90;100743.97;5088698;28;20230;-64
2022/01/22 11:16:40;;;;;;;26.67;15.60;;;;;;;3.67;65.30;100744.31;5084670;28;20223;-69
2022/01/22 11:19:22;;;;;;;26.20;16.33;;;;;;;3.69;65.50;100746.84;5085914;28;20797;-67
2022/01/22 11:21:52;;;;;;;31.03;18.40;;;;;;;4.19;65.02;100768.97;5087170;28;20226;-70
2022/01/22 11:24:22;;;;;;;18.07;12.20;;;;;;;3.43;66.48;100745.00;5103198;28;20232;-67
2022/01/22 11:26:58;;;;;;;23.17;15.90;;;;;;;3.54;66.03;100752.22;5103195;28;20221;-67
2022/01/22 11:29:28;;;;;;;27.57;17.00;;;;;;;3.92;65.40;100767.25;5104162;28;20217;-68
2022/01/22 11:32:00;;;;;;;28.20;16.33;;;;;;;4.06;64.89;100752.28;5104472;28;20269;-68
2022/01/22 11:34:32;;;;;;;26.83;15.37;;;;;;;3.93;65.43;100760.22;5089049;28;20220;-64
2022/01/22 11:37:15;;;;;;;32.17;20.43;;;;;;;3.78;65.87;100754.16;5103701;28;22438;-64
2022/01/22 11:39:42;;;;;;;32.90;21.47;;;;;;;4.51;64.01;100782.59;5104291;28;20229;-65
2022/01/22 11:42:10;;;;;;;29.07;19.97;;;;;;;3.92;64.69;100740.03;5097647;28;20230;-65
2022/01/22 11:44:51;;;;;;;30.87;20.07;;;;;;;3.52;66.09;100759.41;5103824;28;20239;-65
2022/01/22 11:47:23;;;;;;;35.90;19.17;;;;;;;3.61;65.88;100758.78;5103297;28;20339;-65
2022/01/22 11:50:11;;;;;;;28.60;15.20;;;;;;;3.61;65.97;100760.59;5096107;28;20229;-66
2022/01/22 11:52:40;;;;;;;28.67;16.93;;;;;;;3.67;65.89;100775.97;5103540;28;20722;-65
2022/01/22 11:55:13;;;;;;;29.13;18.33;;;;;;;3.35;66.59;100771.03;5102775;28;21010;-65
2022/01/22 11:57:42;;;;;;;28.97;16.77;;;;;;;3.74;65.47;100769.38;5100919;28;20233;-65
2022/01/22 12:00:27;;;;;;;31.30;19.10;;;;;;;4.12;64.48;100765.06;5102112;28;20222;-66
2022/01/22 12:03:03;;;;;;;31.80;19.47;;;;;;;3.95;64.91;100758.31;5103221;28;20236;-68
2022/01/22 12:05:54;;;;;;;19.13;13.57;;;;;;;3.98;64.83;100748.38;5103641;28;20843;-65
2022/01/22 12:08:22;;;;;;;20.53;14.47;;;;;;;3.83;65.65;100756.47;5103670;28;20229;-64
2022/01/22 12:16:39;;;;;;;19.73;11.63;;;;;;;3.81;65.17;100743.41;5089138;28;20227;-65
2022/01/22 12:19:46;;;;;;;17.67;12.23;;;;;;;3.65;65.06;100726.91;5088495;28;20719;-66
2022/01/22 12:22:47;;;;;;;23.53;12.83;;;;;;;4.08;64.65;100743.31;5080290;28;20226;-65
2022/01/22 12:25:13;;;;;;;15.97;12.73;;;;;;;4.77;62.90;100760.56;5089143;28;20732;-65
2022/01/22 12:27:45;;;;;;;16.17;11.73;;;;;;;4.19;64.61;100739.94;5089678;28;20230;-65
2022/01/22 12:30:13;;;;;;;22.70;11.80;;;;;;;4.28;64.99;100756.94;5088544;28;20225;-64
2022/01/22 12:32:49;;;;;;;17.53;10.83;;;;;;;4.26;64.34;100737.72;5089259;28;20644;-64
2022/01/22 12:35:37;;;;;;;19.93;13.40;;;;;;;4.52;63.61;100743.81;5089905;28;20226;-64
2022/01/22 12:38:29;;;;;;;21.47;13.73;;;;;;;4.66;63.82;100743.66;5089382;28;20618;-64
2022/01/22 12:41:26;;;;;;;20.03;13.47;;;;;;;4.27;64.56;100734.13;5082490;28;20219;-65
2022/01/22 12:44:11;;;;;;;17.00;13.13;;;;;;;3.74;65.63;100739.47;5085089;28;20234;-64
2022/01/22 12:46:51;;;;;;;21.43;12.13;;;;;;;4.11;65.01;100744.88;5087701;28;20904;-64
2022/01/22 12:49:20;;;;;;;18.47;13.13;;;;;;;4.63;63.37;100732.47;5081209;28;20233;-64
2022/01/22 12:51:53;;;;;;;20.40;13.23;;;;;;;4.48;63.59;100724.66;5076549;28;20229;-64
2022/01/22 12:54:39;;;;;;;18.27;13.00;;;;;;;4.51;63.80;100726.25;5071248;28;20225;-65
2022/01/22 12:57:19;;;;;;;17.90;12.77;;;;;;;4.57;64.11;100722.34;5069764;28;20800;-64
2022/01/22 13:00:00;;;;;;;22.27;14.80;;;;;;;4.36;64.79;100733.47;5076585;28;20241;-64
2022/01/22 13:02:43;;;;;;;19.67;13.60;;;;;;;4.02;65.16;100711.22;5088840;28;20227;-65
2022/01/22 13:05:15;;;;;;;18.57;12.13;;;;;;;4.12;65.75;100736.03;5078383;28;20776;-64
2022/01/22 13:07:51;;;;;;;19.00;12.63;;;;;;;4.08;65.76;100724.84;5088528;28;20230;-65
2022/01/22 13:10:20;;;;;;;20.20;13.47;;;;;;;4.15;65.43;100722.63;5087296;28;20343;-64
2022/01/22 13:12:47;;;;;;;22.63;12.90;;;;;;;4.31;64.78;100715.28;5081801;28;20218;-64
2022/01/22 13:15:16;;;;;;;22.83;12.93;;;;;;;5.13;62.97;100721.88;5081399;28;20237;-68
2022/01/22 13:17:51;;;;;;;23.80;13.53;;;;;;;4.36;64.67;100709.69;5088994;28;20221;-67
2022/01/22 13:20:21;;;;;;;19.73;13.67;;;;;;;4.77;63.91;100724.41;5088110;28;20227;-67